createdAt,value
2023-11-23T00:02:02.296Z,100620.52
2023-11-23T00:04:29.050Z,100602.66
2023-11-23T00:06:55.750Z,100597.27
2023-11-23T00:09:22.475Z,100593.58
2023-11-23T00:11:49.281Z,100589.74
2023-11-23T00:14:16.009Z,100583.04
2023-11-23T00:16:44.821Z,100564.84
2023-11-23T00:19:11.679Z,100559.41
2023-11-23T00:21:38.464Z,100550.34
2023-11-23T00:24:06.250Z,100548.31
2023-11-23T00:26:34.953Z,100555.62
2023-11-23T00:29:01.946Z,100545.69
2023-11-23T00:31:28.655Z,100546.42
2023-11-23T00:33:55.848Z,100545.05
2023-11-23T00:36:22.855Z,100541.67
2023-11-23T00:38:49.822Z,100540.46
2023-11-23T00:41:16.725Z,100544.62
2023-11-23T00:43:43.374Z,100527.55
2023-11-23T00:46:11.962Z,100528.35
2023-11-23T00:48:38.935Z,100516.80
2023-11-23T00:51:06.085Z,100510.05
2023-11-23T00:53:33.468Z,100503.54
2023-11-23T00:56:00.929Z,100492.34
2023-11-23T00:58:27.851Z,100500.26
2023-11-23T01:00:54.630Z,100488.00
2023-11-23T01:03:21.472Z,100482.73
2023-11-23T01:05:48.456Z,100495.87
2023-11-23T01:08:16.372Z,100491.06
2023-11-23T01:10:43.896Z,100491.14
2023-11-23T01:13:10.573Z,100495.77
2023-11-23T01:15:37.286Z,100488.42
2023-11-23T01:18:04.754Z,100478.70
2023-11-23T01:20:31.567Z,100475.45
2023-11-23T01:22:58.454Z,100470.27
2023-11-23T01:25:25.250Z,100469.55
2023-11-23T01:27:51.952Z,100466.16
2023-11-23T01:30:19.083Z,100465.10
2023-11-23T01:32:46.085Z,100466.48
2023-11-23T01:35:13.882Z,100460.07
2023-11-23T01:37:40.662Z,100448.39
2023-11-23T01:40:09.984Z,100436.06
2023-11-23T01:42:36.864Z,100436.05
2023-11-23T01:45:03.786Z,100422.03
2023-11-23T01:47:32.657Z,100414.86
2023-11-23T01:50:04.420Z,100399.67
2023-11-23T01:52:31.655Z,100385.46
2023-11-23T01:54:58.727Z,100372.23
2023-11-23T01:57:26.440Z,100362.48
2023-11-23T01:59:53.703Z,100347.73
2023-11-23T02:02:20.512Z,100338.06
2023-11-23T02:04:47.756Z,100321.23
2023-11-23T02:07:14.551Z,100310.77
2023-11-23T02:09:42.032Z,100314.48
2023-11-23T02:12:10.787Z,100319.80
2023-11-23T02:14:39.125Z,100320.56
2023-11-23T02:17:19.135Z,100329.94
2023-11-23T02:19:47.812Z,100338.48
2023-11-23T02:22:14.591Z,100329.23
2023-11-23T02:24:41.583Z,100316.84
2023-11-23T02:27:09.955Z,100298.48
2023-11-23T02:29:37.006Z,100283.77
2023-11-23T02:32:08.388Z,100278.64
2023-11-23T02:34:35.311Z,100281.39
2023-11-23T02:37:02.124Z,100287.88
2023-11-23T02:39:29.177Z,100278.75
2023-11-23T02:41:56.691Z,100274.04
2023-11-23T02:44:23.676Z,100278.63
2023-11-23T02:46:51.228Z,100269.13
2023-11-23T02:49:19.550Z,100257.12
2023-11-23T02:51:46.869Z,100251.00
2023-11-23T02:54:13.879Z,100246.23
2023-11-23T02:56:41.137Z,100238.66
2023-11-23T02:59:09.126Z,100233.73
2023-11-23T03:01:36.329Z,100221.20
2023-11-23T03:04:05.872Z,100214.08
2023-11-23T03:06:32.830Z,100210.18
2023-11-23T03:09:00.020Z,100203.90
2023-11-23T03:11:27.723Z,100191.70
2023-11-23T03:13:55.155Z,100177.92
2023-11-23T03:16:21.906Z,100158.75
2023-11-23T03:18:49.200Z,100143.02
2023-11-23T03:21:16.269Z,100132.27
2023-11-23T03:23:46.732Z,100128.01
2023-11-23T03:26:14.114Z,100113.77
2023-11-23T03:28:40.834Z,100097.35
2023-11-23T03:31:09.121Z,100092.73
2023-11-23T03:33:35.886Z,100091.52
2023-11-23T03:36:02.950Z,100078.64
2023-11-23T03:38:29.713Z,100069.62
2023-11-23T03:40:59.122Z,100067.55
2023-11-23T03:43:26.245Z,100057.08
2023-11-23T03:45:53.021Z,100047.23
2023-11-23T03:48:20.095Z,100048.29
2023-11-23T03:50:47.654Z,100036.28
2023-11-23T03:53:14.557Z,100023.65
2023-11-23T03:55:41.285Z,100002.45
2023-11-23T03:58:07.967Z,99992.52
2023-11-23T04:00:36.009Z,99985.05
2023-11-23T04:03:02.975Z,99972.96
2023-11-23T04:05:29.911Z,99970.80
2023-11-23T04:07:56.920Z,99977.45
2023-11-23T04:10:23.602Z,99959.95
2023-11-23T04:12:52.178Z,99956.71
2023-11-23T04:15:19.223Z,99949.23
2023-11-23T04:17:46.553Z,99934.95
2023-11-23T04:20:14.311Z,99923.42
2023-11-23T04:22:41.139Z,99914.80
2023-11-23T04:25:09.757Z,99910.98
2023-11-23T04:27:36.738Z,99896.05
2023-11-23T04:30:05.468Z,99885.55
2023-11-23T04:32:33.200Z,99877.63
2023-11-23T04:34:59.919Z,99865.39
2023-11-23T04:37:26.659Z,99857.08
2023-11-23T04:39:53.634Z,99855.39
2023-11-23T04:42:20.747Z,99847.56
2023-11-23T04:44:47.600Z,99838.36
2023-11-23T04:47:14.674Z,99839.90
2023-11-23T04:49:41.436Z,99821.04
2023-11-23T04:52:09.361Z,99811.35
2023-11-23T04:54:36.484Z,99809.01
2023-11-23T04:57:03.649Z,99799.16
2023-11-23T04:59:30.770Z,99796.00
2023-11-23T05:01:57.761Z,99801.16
2023-11-23T05:04:25.347Z,99787.55
2023-11-23T05:06:52.681Z,99771.55
2023-11-23T05:09:19.684Z,99754.18
2023-11-23T05:11:47.386Z,99763.23
2023-11-23T05:14:14.101Z,99761.70
2023-11-23T05:16:40.996Z,99750.66
2023-11-23T05:19:07.856Z,99753.60
2023-11-23T05:21:34.913Z,99739.96
2023-11-23T05:24:03.844Z,99737.95
2023-11-23T05:26:31.522Z,99724.70
2023-11-23T05:28:58.302Z,99713.13
2023-11-23T05:31:25.046Z,99710.75
2023-11-23T05:33:51.905Z,99710.05
2023-11-23T05:36:18.820Z,99677.30
2023-11-23T05:38:45.612Z,99661.78
2023-11-23T05:41:12.564Z,99644.90
2023-11-23T05:43:39.291Z,99651.55
2023-11-23T05:46:06.370Z,99645.96
2023-11-23T05:48:33.088Z,99634.22
2023-11-23T05:51:00.030Z,99633.55
2023-11-23T05:53:26.792Z,99635.60
2023-11-23T05:55:53.462Z,99629.12
2023-11-23T05:58:20.261Z,99617.85
2023-11-23T06:00:50.255Z,99610.52
2023-11-23T06:03:21.131Z,99595.34
2023-11-23T06:05:50.626Z,99590.56
2023-11-23T06:08:17.316Z,99584.28
2023-11-23T06:10:44.478Z,99583.09
2023-11-23T06:13:11.234Z,99578.32
2023-11-23T06:15:38.047Z,99575.59
2023-11-23T06:18:13.306Z,99575.08
2023-11-23T06:20:39.768Z,99560.23
2023-11-23T06:23:06.536Z,99558.69
2023-11-23T06:25:33.580Z,99546.06
2023-11-23T06:28:12.372Z,99544.19
2023-11-23T06:30:42.483Z,99536.71
2023-11-23T06:33:09.587Z,99541.84
2023-11-23T06:35:36.474Z,99543.54
2023-11-23T06:38:04.234Z,99544.41
2023-11-23T06:40:31.091Z,99541.35
2023-11-23T06:42:58.009Z,99537.59
2023-11-23T06:45:25.080Z,99525.81
2023-11-23T06:47:52.137Z,99536.90
2023-11-23T06:50:19.409Z,99524.96
2023-11-23T06:52:46.371Z,99523.93
2023-11-23T06:55:15.326Z,99515.56
2023-11-23T06:57:47.947Z,99508.22
2023-11-23T07:00:23.400Z,99495.40
2023-11-23T07:02:50.980Z,99487.38
2023-11-23T07:05:18.123Z,99482.94
2023-11-23T07:07:45.265Z,99470.30
2023-11-23T07:10:15.384Z,99479.52
2023-11-23T07:12:44.168Z,99466.52
2023-11-23T07:15:13.474Z,99463.10
2023-11-23T07:17:41.220Z,99454.20
2023-11-23T07:20:13.811Z,99451.16
2023-11-23T07:22:40.876Z,99440.05
2023-11-23T07:25:11.066Z,99437.64
2023-11-23T07:27:38.901Z,99445.67
2023-11-23T07:30:07.856Z,99430.96
2023-11-23T07:32:34.900Z,99428.21
2023-11-23T07:35:01.772Z,99420.70
2023-11-23T07:37:30.075Z,99422.55
2023-11-23T07:39:58.232Z,99417.40
2023-11-23T07:42:26.803Z,99413.64
2023-11-23T07:44:53.996Z,99411.42
2023-11-23T07:47:21.208Z,99407.16
2023-11-23T07:49:47.996Z,99393.66
2023-11-23T07:52:15.296Z,99396.73
2023-11-23T07:54:42.093Z,99384.77
2023-11-23T07:57:09.042Z,99386.64
2023-11-23T07:59:37.898Z,99386.12
2023-11-23T08:02:06.191Z,99391.40
2023-11-23T08:04:33.230Z,99376.70
2023-11-23T08:07:00.505Z,99364.38
2023-11-23T08:09:31.367Z,99360.59
2023-11-23T08:11:58.666Z,99349.60
2023-11-23T08:14:25.589Z,99334.36
2023-11-23T08:16:52.646Z,99337.08
2023-11-23T08:19:19.851Z,99336.55
2023-11-23T08:21:49.977Z,99344.75
2023-11-23T08:24:18.591Z,99338.42
2023-11-23T08:26:45.856Z,99336.20
2023-11-23T08:29:13.192Z,99335.31
2023-11-23T08:31:41.123Z,99338.20
2023-11-23T08:34:09.260Z,99342.48
2023-11-23T08:36:37.253Z,99328.94
2023-11-23T08:39:04.519Z,99325.14
2023-11-23T08:41:32.654Z,99314.31
2023-11-23T08:44:00.037Z,99314.48
2023-11-23T08:46:27.044Z,99312.73
2023-11-23T08:48:55.667Z,99308.29
2023-11-23T08:51:23.799Z,99303.65
2023-11-23T08:53:51.464Z,99304.32
2023-11-23T08:56:18.627Z,99298.33
2023-11-23T08:58:45.432Z,99297.27
2023-11-23T09:01:12.317Z,99289.53
2023-11-23T09:03:39.444Z,99281.15
2023-11-23T09:06:09.790Z,99272.58
2023-11-23T09:08:37.654Z,99255.63
2023-11-23T09:11:04.419Z,99250.66
2023-11-23T09:13:33.189Z,99237.62
2023-11-23T09:16:01.215Z,99234.33
2023-11-23T09:18:28.191Z,99221.25
2023-11-23T09:20:58.349Z,99216.27
2023-11-23T09:23:26.163Z,99222.92
2023-11-23T09:25:52.890Z,99212.98
2023-11-23T09:28:20.433Z,99203.89
2023-11-23T09:30:47.758Z,99194.83
2023-11-23T09:33:16.412Z,99183.83
2023-11-23T09:35:43.743Z,99184.50
2023-11-23T09:38:11.407Z,99171.31
2023-11-23T09:40:38.419Z,99176.21
2023-11-23T09:43:05.989Z,99172.93
2023-11-23T09:45:33.490Z,99167.78
2023-11-23T09:48:01.975Z,99157.13
2023-11-23T09:50:34.021Z,99150.39
2023-11-23T09:53:05.455Z,99151.04
2023-11-23T09:55:32.799Z,99147.92
2023-11-23T09:58:00.352Z,99160.23
2023-11-23T10:00:27.163Z,99149.39
2023-11-23T10:02:57.203Z,99140.77
2023-11-23T10:05:25.426Z,99135.59
2023-11-23T10:07:54.962Z,99116.82
2023-11-23T10:10:22.298Z,99115.91
2023-11-23T10:12:50.857Z,99108.48
2023-11-23T10:15:17.983Z,99104.14
2023-11-23T10:17:44.911Z,99100.34
2023-11-23T10:20:16.682Z,99090.16
2023-11-23T10:22:47.042Z,99083.27
2023-11-23T10:25:23.166Z,99076.86
2023-11-23T10:27:49.885Z,99074.05
2023-11-23T10:30:17.891Z,99066.30
2023-11-23T10:32:44.922Z,99065.69
2023-11-23T10:35:14.032Z,99066.45
2023-11-23T10:37:43.719Z,99062.55
2023-11-23T10:40:14.605Z,99053.90
2023-11-23T10:42:42.946Z,99061.49
2023-11-23T10:45:13.839Z,99047.48
2023-11-23T10:47:42.266Z,99044.30
2023-11-23T10:50:12.174Z,99039.80
2023-11-23T10:52:40.775Z,99038.55
2023-11-23T10:55:09.012Z,99033.55
2023-11-23T10:57:36.890Z,99026.33
2023-11-23T11:00:08.600Z,99035.08
2023-11-23T11:02:35.819Z,99025.06
2023-11-23T11:05:04.710Z,99024.65
2023-11-23T11:07:31.789Z,99019.81
2023-11-23T11:10:06.636Z,99026.14
2023-11-23T11:12:40.518Z,99005.02
2023-11-23T11:15:09.062Z,98998.60
2023-11-23T11:17:40.164Z,98996.30
2023-11-23T11:20:11.229Z,98990.39
2023-11-23T11:22:38.270Z,98985.38
2023-11-23T11:25:05.570Z,98982.40
2023-11-23T11:27:36.650Z,98983.01
2023-11-23T11:30:03.945Z,98975.70
2023-11-23T11:32:36.783Z,98979.16
2023-11-23T11:35:09.953Z,98978.21
2023-11-23T11:37:37.725Z,98966.48
2023-11-23T11:40:06.877Z,98942.23
2023-11-23T11:42:36.339Z,98934.23
2023-11-23T11:45:07.392Z,98925.85
2023-11-23T11:47:35.328Z,98914.81
2023-11-23T11:50:02.186Z,98905.67
2023-11-23T11:52:29.060Z,98897.84
2023-11-23T11:54:56.020Z,98897.87
2023-11-23T11:57:23.422Z,98884.92
2023-11-23T11:59:50.429Z,98879.70
2023-11-23T12:02:17.434Z,98865.02
2023-11-23T12:04:45.421Z,98873.85
2023-11-23T12:07:17.139Z,98871.90
2023-11-23T12:09:46.981Z,98858.95
2023-11-23T12:12:14.486Z,98860.39
2023-11-23T12:14:41.754Z,98853.83
2023-11-23T12:17:12.869Z,98851.40
2023-11-23T12:19:50.787Z,98839.45
2023-11-23T12:22:21.535Z,98833.89
2023-11-23T12:24:48.454Z,98820.38
2023-11-23T12:27:17.007Z,98809.64
2023-11-23T12:29:45.034Z,98814.88
2023-11-23T12:32:11.719Z,98815.63
2023-11-23T12:34:38.446Z,98799.86
2023-11-23T12:37:05.996Z,98787.13
2023-11-23T12:39:32.855Z,98785.82
2023-11-23T12:41:59.831Z,98766.31
2023-11-23T12:44:26.883Z,98768.16
2023-11-23T12:46:53.926Z,98768.82
2023-11-23T12:49:21.477Z,98761.69
2023-11-23T12:51:48.823Z,98762.66
2023-11-23T12:54:16.265Z,98753.05
2023-11-23T12:56:43.281Z,98744.87
2023-11-23T12:59:10.160Z,98742.15
2023-11-23T13:01:40.330Z,98734.27
2023-11-23T13:04:09.928Z,98726.05
2023-11-23T13:06:37.727Z,98706.94
2023-11-23T13:09:05.388Z,98703.81
2023-11-23T13:11:32.940Z,98714.45
2023-11-23T13:13:59.693Z,98703.56
2023-11-23T13:16:26.792Z,98698.77
2023-11-23T13:19:10.377Z,98701.22
2023-11-23T13:21:42.496Z,98695.71
2023-11-23T13:24:13.179Z,98690.62
2023-11-23T13:26:40.159Z,98692.86
2023-11-23T13:29:07.460Z,98677.88
2023-11-23T13:31:34.853Z,98670.20
2023-11-23T13:34:01.988Z,98659.45
2023-11-23T13:36:29.471Z,98657.24
2023-11-23T13:38:57.681Z,98651.06
2023-11-23T13:41:24.405Z,98641.79
2023-11-23T13:43:51.149Z,98634.75
2023-11-23T13:46:18.461Z,98640.31
2023-11-23T13:48:47.463Z,98621.07
2023-11-23T13:51:18.616Z,98611.02
2023-11-23T13:53:45.423Z,98607.54
2023-11-23T13:56:12.909Z,98603.27
2023-11-23T13:58:39.929Z,98598.23
2023-11-23T14:01:06.915Z,98586.62
2023-11-23T14:03:36.266Z,98587.77
2023-11-23T14:06:04.267Z,98584.72
2023-11-23T14:08:31.021Z,98578.58
2023-11-23T14:10:57.976Z,98559.19
2023-11-23T14:13:26.640Z,98566.34
2023-11-23T14:15:54.971Z,98558.94
2023-11-23T14:18:23.032Z,98546.95
2023-11-23T14:20:51.017Z,98540.61
2023-11-23T14:23:18.598Z,98534.95
2023-11-23T14:25:45.518Z,98528.71
2023-11-23T14:28:16.154Z,98536.98
2023-11-23T14:30:43.946Z,98522.95
2023-11-23T14:33:12.635Z,98525.77
2023-11-23T14:35:39.508Z,98525.52
2023-11-23T14:38:06.707Z,98515.44
2023-11-23T14:40:33.515Z,98514.27
2023-11-23T14:43:00.343Z,98510.36
2023-11-23T14:45:31.307Z,98509.59
2023-11-23T14:48:00.029Z,98497.96
2023-11-23T14:50:30.056Z,98495.30
2023-11-23T14:52:57.400Z,98501.44
2023-11-23T14:55:24.498Z,98498.76
2023-11-23T14:57:51.493Z,98490.88
2023-11-23T15:00:19.869Z,98482.45
2023-11-23T15:02:47.066Z,98479.83
2023-11-23T15:05:16.513Z,98472.31
2023-11-23T15:07:43.768Z,98460.49
2023-11-23T15:10:13.997Z,98459.48
2023-11-23T15:12:41.275Z,98448.52
2023-11-23T15:15:09.593Z,98435.30
2023-11-23T15:17:37.620Z,98430.71
2023-11-23T15:20:07.365Z,98416.14
2023-11-23T15:22:34.402Z,98412.89
2023-11-23T15:25:08.306Z,98399.94
2023-11-23T15:27:37.317Z,98398.40
2023-11-23T15:30:06.200Z,98393.02
2023-11-23T15:32:38.760Z,98385.81
2023-11-23T15:35:06.457Z,98378.27
2023-11-23T15:37:33.204Z,98361.77
2023-11-23T15:39:59.985Z,98361.79
2023-11-23T15:42:27.669Z,98358.58
2023-11-23T15:44:54.475Z,98353.13
2023-11-23T15:47:21.282Z,98346.73
2023-11-23T15:49:48.929Z,98336.99
2023-11-23T15:52:16.211Z,98315.59
2023-11-23T15:54:43.158Z,98325.36
2023-11-23T15:57:11.302Z,98315.59
2023-11-23T15:59:38.449Z,98305.13
2023-11-23T16:02:05.945Z,98318.45
2023-11-23T16:04:33.256Z,98317.61
2023-11-23T16:07:01.896Z,98318.66
2023-11-23T16:09:28.844Z,98299.58
2023-11-23T16:11:56.198Z,98306.48
2023-11-23T16:14:25.202Z,98307.88
2023-11-23T16:16:52.049Z,98287.45
2023-11-23T16:19:18.844Z,98270.75
2023-11-23T16:21:45.718Z,98268.38
2023-11-23T16:24:14.009Z,98266.34
2023-11-23T16:26:41.016Z,98273.81
2023-11-23T16:29:11.728Z,98264.16
2023-11-23T16:31:43.301Z,98257.97
2023-11-23T16:34:11.224Z,98250.66
2023-11-23T16:36:40.496Z,98254.06
2023-11-23T16:39:14.535Z,98235.19
2023-11-23T16:41:41.375Z,98227.92
2023-11-23T16:44:08.605Z,98226.77
2023-11-23T16:46:35.361Z,98215.23
2023-11-23T16:49:02.423Z,98205.78
2023-11-23T16:51:30.326Z,98191.71
2023-11-23T16:53:57.561Z,98185.43
2023-11-23T16:56:24.556Z,98177.86
2023-11-23T16:58:51.779Z,98169.50
2023-11-23T17:01:19.045Z,98175.05
2023-11-23T17:03:46.092Z,98178.06
2023-11-23T17:06:13.594Z,98167.98
2023-11-23T17:08:40.935Z,98165.55
2023-11-23T17:11:10.223Z,98157.91
2023-11-23T17:13:37.792Z,98153.02
2023-11-23T17:16:04.836Z,98151.73
2023-11-23T17:18:31.844Z,98133.94
2023-11-23T17:20:58.880Z,98124.64
2023-11-23T17:23:26.139Z,98116.73
2023-11-23T17:25:53.214Z,98101.63
2023-11-23T17:28:21.931Z,98095.52
2023-11-23T17:30:49.885Z,98087.56
2023-11-23T17:33:20.348Z,98064.09
2023-11-23T17:35:47.324Z,98061.27
2023-11-23T17:38:14.950Z,98064.01
2023-11-23T17:40:42.912Z,98045.41
2023-11-23T17:43:09.816Z,98037.77
2023-11-23T17:45:37.036Z,98032.48
2023-11-23T17:48:05.465Z,98018.27
2023-11-23T17:50:32.290Z,98012.73
2023-11-23T17:52:59.896Z,98019.36
2023-11-23T17:55:28.471Z,98005.86
2023-11-23T17:57:56.028Z,97987.55
2023-11-23T18:00:25.779Z,97976.96
2023-11-23T18:02:52.714Z,97976.96
2023-11-23T18:05:19.905Z,97979.01
2023-11-23T18:07:47.425Z,97973.70
2023-11-23T18:10:16.291Z,97967.34
2023-11-23T18:12:43.336Z,97970.11
2023-11-23T18:15:12.968Z,97965.56
2023-11-23T18:17:40.866Z,97959.16
2023-11-23T18:20:12.625Z,97969.33
2023-11-23T18:22:39.878Z,97963.72
2023-11-23T18:25:08.880Z,97953.30
2023-11-23T18:27:36.017Z,97949.27
2023-11-23T18:30:02.996Z,97958.25
2023-11-23T18:32:30.856Z,97937.16
2023-11-23T18:34:57.648Z,97937.45
2023-11-23T18:37:24.808Z,97932.55
2023-11-23T18:39:51.668Z,97919.37
2023-11-23T18:42:18.543Z,97912.60
2023-11-23T18:44:45.500Z,97914.73
2023-11-23T18:47:12.719Z,97913.71
2023-11-23T18:49:39.556Z,97896.15
2023-11-23T18:52:07.079Z,97883.14
2023-11-23T18:54:33.928Z,97873.61
2023-11-23T18:57:01.009Z,97881.89
2023-11-23T18:59:27.738Z,97865.27
2023-11-23T19:01:55.597Z,97852.98
2023-11-23T19:04:23.475Z,97849.26
2023-11-23T19:06:54.318Z,97848.25
2023-11-23T19:09:23.809Z,97834.63
2023-11-23T19:11:51.117Z,97825.45
2023-11-23T19:14:18.022Z,97815.06
2023-11-23T19:16:44.988Z,97808.55
2023-11-23T19:19:14.012Z,97802.02
2023-11-23T19:21:41.998Z,97796.50
2023-11-23T19:24:11.168Z,97785.12
2023-11-23T19:26:39.626Z,97772.60
2023-11-23T19:29:09.242Z,97763.37
2023-11-23T19:31:37.163Z,97764.91
2023-11-23T19:34:05.497Z,97753.74
2023-11-23T19:36:35.320Z,97757.01
2023-11-23T19:39:03.893Z,97750.64
2023-11-23T19:41:32.211Z,97735.44
2023-11-23T19:43:59.733Z,97734.30
2023-11-23T19:46:29.262Z,97723.41
2023-11-23T19:48:57.864Z,97720.60
2023-11-23T19:51:30.352Z,97726.44
2023-11-23T19:54:00.989Z,97726.30
2023-11-23T19:56:28.483Z,97726.33
2023-11-23T19:58:55.350Z,97715.09
2023-11-23T20:01:22.474Z,97726.34
2023-11-23T20:03:49.427Z,97718.96
2023-11-23T20:06:16.356Z,97720.78
2023-11-23T20:08:44.472Z,97717.54
2023-11-23T20:11:13.242Z,97711.51
2023-11-23T20:13:40.790Z,97717.77
2023-11-23T20:16:18.399Z,97708.06
2023-11-23T20:18:51.308Z,97701.33
2023-11-23T20:21:18.279Z,97716.98
2023-11-23T20:23:44.978Z,97704.05
2023-11-23T20:26:11.821Z,97728.46
2023-11-23T20:28:38.845Z,97769.77
2023-11-23T20:31:06.420Z,97763.99
2023-11-23T20:33:33.420Z,97781.24
2023-11-23T20:36:00.264Z,97783.92
2023-11-23T20:38:27.065Z,97782.16
2023-11-23T20:40:53.846Z,97789.85
2023-11-23T20:43:22.506Z,97784.35
2023-11-23T20:45:51.984Z,97778.85
2023-11-23T20:48:18.829Z,97779.02
2023-11-23T20:50:46.121Z,97776.02
2023-11-23T20:53:12.884Z,97769.48
2023-11-23T20:55:40.813Z,97757.00
2023-11-23T20:58:09.008Z,97756.55
2023-11-23T21:00:36.768Z,97754.39
2023-11-23T21:03:05.075Z,97759.36
2023-11-23T21:05:33.290Z,97762.10
2023-11-23T21:08:01.599Z,97756.89
2023-11-23T21:10:30.113Z,97753.55
2023-11-23T21:12:57.215Z,97761.11
2023-11-23T21:15:24.003Z,97764.55
2023-11-23T21:17:51.002Z,97757.63
2023-11-23T21:20:18.037Z,97762.07
2023-11-23T21:22:45.041Z,97757.80
2023-11-23T21:25:12.065Z,97762.42
2023-11-23T21:27:43.504Z,97773.75
2023-11-23T21:30:12.860Z,97784.80
2023-11-23T21:32:40.522Z,97781.83
2023-11-23T21:35:09.213Z,97767.27
2023-11-23T21:37:36.717Z,97761.30
2023-11-23T21:40:03.618Z,97745.70
2023-11-23T21:42:30.977Z,97743.36
2023-11-23T21:44:57.816Z,97746.54
2023-11-23T21:47:24.619Z,97760.27
2023-11-23T21:49:51.439Z,97753.39
2023-11-23T21:52:18.309Z,97752.07
2023-11-23T21:54:50.809Z,97756.48
2023-11-23T21:57:25.064Z,97741.00
2023-11-23T21:59:51.931Z,97716.08
2023-11-23T22:02:18.817Z,97691.75
2023-11-23T22:04:47.399Z,97671.93
2023-11-23T22:07:14.295Z,97668.95
2023-11-23T22:09:41.216Z,97678.32
2023-11-23T22:12:09.562Z,97687.13
2023-11-23T22:14:38.363Z,97674.95
2023-11-23T22:17:05.755Z,97670.52
2023-11-23T22:19:33.270Z,97596.39
2023-11-23T22:22:00.665Z,97613.77
2023-11-23T22:24:29.178Z,97634.02
2023-11-23T22:26:59.544Z,97642.00
2023-11-23T22:29:26.270Z,97659.89
2023-11-23T22:31:56.559Z,97649.89
2023-11-23T22:34:25.585Z,97628.30
2023-11-23T22:36:55.848Z,97646.79
2023-11-23T22:39:24.283Z,97639.36
2023-11-23T22:41:52.543Z,97644.35
2023-11-23T22:44:20.388Z,97612.12
2023-11-23T22:46:49.915Z,97609.78
2023-11-23T22:49:16.761Z,97614.17
2023-11-23T22:51:44.230Z,97587.13
2023-11-23T22:54:11.542Z,97593.52
2023-11-23T22:56:38.882Z,97595.82
2023-11-23T22:59:05.741Z,97595.23
2023-11-23T23:01:32.616Z,97611.80
2023-11-23T23:03:59.662Z,97609.27
2023-11-23T23:06:26.600Z,97603.86
2023-11-23T23:08:53.781Z,97611.80
2023-11-23T23:11:20.517Z,97622.98
2023-11-23T23:13:47.359Z,97619.86
2023-11-23T23:16:15.418Z,97620.95
2023-11-23T23:18:42.468Z,97632.77
2023-11-23T23:21:09.804Z,97630.23
2023-11-23T23:23:36.790Z,97630.44
2023-11-23T23:26:03.941Z,97632.31
2023-11-23T23:28:32.669Z,97619.40
2023-11-23T23:31:00.140Z,97624.29
2023-11-23T23:33:27.090Z,97617.58
2023-11-23T23:35:54.349Z,97606.15
2023-11-23T23:38:21.133Z,97620.80
2023-11-23T23:40:51.393Z,97620.52
2023-11-23T23:43:18.768Z,97629.03
2023-11-23T23:45:45.786Z,97622.16
2023-11-23T23:48:12.700Z,97595.85
2023-11-23T23:50:41.788Z,97603.71
2023-11-23T23:53:08.840Z,97586.52
2023-11-23T23:55:35.663Z,97580.04
2023-11-23T23:58:04.967Z,97592.94
